^^
Station Historical Data
 
Daily Summary for December 16, 2017 Units:  English    Metric   Both
« Previous Day
Next Day »
Daily Weekly Monthly Yearly Custom
  Current: High: Low: Average:
Temperature: 26.0 °F 28.9 °F 21.3 °F 25.4 °F
Dew Point: 22.4 °F 27.1 °F 18.6 °F 23 °F
Humidity: 86% 93% 85% 90%
Wind Speed: 4.0mph 10.4mph 0.1mph 4.6mph
Wind Gust: 5.8mph 12.7mph - -
WindEast - - East
Pressure: 29.82 in 29.82 in 29.64 in -
Precipitation: 0.00 in      
Historical Graphs
 
 
Tabular Data for December 16, 2017
Time Temperature Dew Point Pressure Wind Wind Speed Wind Gust Humidity Rainfall Rate (Hourly) solar Conditions
00:00 28.9 °F 27.1 °F 29.66 in SSE 0.6 mph 1.2 mph 93% 0.00 in 0.0 W/m2 OVC
00:01 28.9 °F 27.1 °F 29.66 in SE 2.2 mph 3.5 mph 93% 0.00 in 0.0 W/m2 -SN
00:06 28.9 °F 27.1 °F 29.66 in SE 1.2 mph 2.3 mph 93% 0.00 in 0.0 W/m2 -SN
00:07 28.9 °F 27.1 °F 29.66 in SE 0.4 mph 1.2 mph 93% 0.00 in 0.0 W/m2 -SN
00:12 28.8 °F 27.0 °F 29.66 in SE 0.6 mph 1.2 mph 93% 0.00 in 0.0 W/m2 -SN
00:14 28.8 °F 27.0 °F 29.65 in SE 0.6 mph 1.2 mph 93% 0.00 in 0.0 W/m2 -SN
00:18 28.8 °F 27.0 °F 29.65 in SE 1.2 mph 2.3 mph 93% 0.00 in 0.0 W/m2 -SN
00:22 28.7 °F 26.9 °F 29.65 in SE 1.6 mph 2.4 mph 93% 0.00 in 0.0 W/m2 SCT
00:27 28.7 °F 26.9 °F 29.65 in SE 1.5 mph 2.4 mph 93% 0.00 in 0.0 W/m2 SCT
00:32 28.7 °F 26.9 °F 29.65 in ESE 1.4 mph 2.3 mph 93% 0.00 in 0.0 W/m2 SCT
00:37 28.7 °F 26.9 °F 29.65 in ESE 1.3 mph 2.3 mph 93% 0.00 in 0.0 W/m2 SCT
00:40 28.7 °F 26.9 °F 29.65 in ESE 1.7 mph 2.3 mph 93% 0.00 in 0.0 W/m2 SCT
00:45 28.7 °F 26.9 °F 29.65 in ESE 0.3 mph 1.2 mph 93% 0.00 in 0.0 W/m2 BKN
00:49 28.7 °F 26.9 °F 29.65 in ESE 2.0 mph 2.4 mph 93% 0.00 in 0.0 W/m2 BKN
00:51 28.7 °F 26.9 °F 29.65 in ESE 0.9 mph 2.4 mph 93% 0.00 in 0.0 W/m2 BKN
00:56 28.7 °F 26.9 °F 29.65 in ESE 1.3 mph 2.3 mph 93% 0.00 in 0.0 W/m2 BKN
01:01 28.7 °F 26.9 °F 29.65 in ESE 0.7 mph 2.3 mph 93% 0.00 in 0.0 W/m2 OVC
01:06 28.7 °F 26.9 °F 29.65 in ESE 2.1 mph 2.4 mph 93% 0.00 in 0.0 W/m2 OVC
01:10 28.7 °F 26.9 °F 29.65 in ESE 0.9 mph 1.2 mph 93% 0.00 in 0.0 W/m2 OVC
01:12 28.6 °F 26.8 °F 29.65 in ESE 0.1 mph 1.2 mph 93% 0.00 in 0.0 W/m2 OVC
01:17 28.6 °F 26.8 °F 29.65 in ESE 2.0 mph 4.0 mph 93% 0.00 in 0.0 W/m2 OVC
01:22 28.6 °F 26.8 °F 29.65 in ESE 1.0 mph 4.0 mph 93% 0.00 in 0.0 W/m2 OVC
01:23 28.6 °F 26.8 °F 29.65 in ESE 1.2 mph 3.5 mph 93% 0.00 in 0.0 W/m2 OVC
01:28 28.6 °F 26.8 °F 29.65 in ESE 0.4 mph 1.2 mph 93% 0.00 in 0.0 W/m2 OVC
01:33 28.6 °F 26.8 °F 29.65 in ESE 1.5 mph 2.3 mph 93% 0.00 in 0.0 W/m2 OVC
01:38 28.7 °F 26.9 °F 29.65 in ESE 1.5 mph 2.3 mph 93% 0.00 in 0.0 W/m2 OVC
01:39 28.7 °F 26.9 °F 29.65 in ESE 1.8 mph 2.4 mph 93% 0.00 in 0.0 W/m2 OVC
01:44 28.7 °F 26.9 °F 29.65 in ESE 2.2 mph 3.5 mph 93% 0.00 in 0.0 W/m2 OVC
01:45 28.7 °F 26.9 °F 29.65 in ESE 2.2 mph 2.4 mph 93% 0.00 in 0.0 W/m2 OVC
01:50 28.7 °F 26.9 °F 29.65 in East 3.0 mph 6.0 mph 93% 0.00 in 0.0 W/m2 OVC
01:52 28.7 °F 26.9 °F 29.65 in East 3.7 mph 5.8 mph 93% 0.00 in 0.0 W/m2 OVC
01:53 28.7 °F 26.9 °F 29.65 in East 2.2 mph 2.4 mph 93% 0.00 in 0.0 W/m2 OVC
01:59 28.7 °F 26.9 °F 29.65 in ESE 3.5 mph 3.6 mph 93% 0.00 in 0.0 W/m2 OVC
02:00 28.7 °F 26.9 °F 29.65 in East 3.7 mph 3.7 mph 93% 0.00 in 0.0 W/m2 OVC
02:05 28.7 °F 26.9 °F 29.64 in East 2.4 mph 3.5 mph 93% 0.00 in 0.0 W/m2 OVC
02:07 28.7 °F 26.9 °F 29.64 in East 2.7 mph 4.6 mph 93% 0.00 in 0.0 W/m2 OVC
02:12 28.7 °F 26.9 °F 29.65 in ESE 2.2 mph 4.8 mph 93% 0.00 in 0.0 W/m2 OVC
02:15 28.7 °F 26.9 °F 29.65 in ENE 2.8 mph 4.6 mph 93% 0.00 in 0.0 W/m2 OVC
02:20 28.7 °F 26.9 °F 29.64 in East 3.8 mph 6.0 mph 93% 0.00 in 0.0 W/m2 OVC
02:25 28.7 °F 26.9 °F 29.64 in East 3.5 mph 6.0 mph 93% 0.00 in 0.0 W/m2 OVC
02:26 28.7 °F 26.9 °F 29.64 in East 5.7 mph 8.1 mph 93% 0.00 in 0.0 W/m2 OVC
02:31 28.7 °F 26.9 °F 29.64 in East 2.8 mph 3.5 mph 93% 0.00 in 0.0 W/m2 OVC
02:34 28.7 °F 26.9 °F 29.64 in ESE 4.0 mph 4.6 mph 93% 0.00 in 0.0 W/m2 OVC
02:39 28.7 °F 26.9 °F 29.64 in ESE 3.5 mph 4.6 mph 93% 0.00 in 0.0 W/m2 OVC
02:44 28.7 °F 26.9 °F 29.64 in ESE 2.2 mph 3.5 mph 93% 0.00 in 0.0 W/m2 OVC
02:49 28.7 °F 26.9 °F 29.64 in East 2.6 mph 3.5 mph 93% 0.00 in 0.0 W/m2 OVC
02:54 28.7 °F 26.9 °F 29.64 in East 2.9 mph 3.5 mph 93% 0.00 in 0.0 W/m2 OVC
02:59 28.5 °F 26.7 °F 29.64 in ESE 5.2 mph 6.0 mph 93% 0.00 in 0.0 W/m2 OVC
03:04 28.4 °F 26.6 °F 29.65 in ENE 2.8 mph 4.6 mph 93% 0.00 in 0.0 W/m2 OVC
03:07 28.4 °F 26.6 °F 29.65 in East 3.8 mph 5.8 mph 93% 0.00 in 0.0 W/m2 OVC
03:09 28.4 °F 26.6 °F 29.65 in East 2.5 mph 2.5 mph 93% 0.00 in 0.0 W/m2 OVC
03:12 28.2 °F 26.4 °F 29.65 in East 5.2 mph 5.8 mph 93% 0.00 in 0.0 W/m2 OVC
03:18 28.1 °F 26.3 °F 29.66 in ESE 2.2 mph 6.9 mph 93% 0.00 in 0.0 W/m2 OVC
03:21 28.1 °F 26.3 °F 29.66 in East 4.6 mph 8.1 mph 93% 0.00 in 0.0 W/m2 OVC
03:25 27.9 °F 26.1 °F 29.66 in ENE 5.7 mph 10.4 mph 93% 0.00 in 0.0 W/m2 OVC
03:30 27.9 °F 26.1 °F 29.65 in East 3.3 mph 3.6 mph 93% 0.00 in 0.0 W/m2 OVC
03:32 27.8 °F 26.0 °F 29.65 in ESE 5.5 mph 8.1 mph 93% 0.00 in 0.0 W/m2 OVC
03:33 27.8 °F 26.0 °F 29.65 in ENE 3.8 mph 8.1 mph 93% 0.00 in 0.0 W/m2 OVC
03:38 27.7 °F 25.9 °F 29.65 in East 4.6 mph 6.9 mph 93% 0.00 in 0.0 W/m2 OVC
03:40 27.7 °F 25.9 °F 29.65 in ENE 5.4 mph 5.8 mph 93% 0.00 in 0.0 W/m2 OVC
03:45 27.6 °F 25.8 °F 29.65 in ENE 2.8 mph 3.5 mph 93% 0.00 in 0.0 W/m2 OVC
03:50 27.6 °F 25.8 °F 29.66 in East 3.6 mph 6.9 mph 93% 0.00 in 0.0 W/m2 OVC
03:55 27.6 °F 25.8 °F 29.66 in ESE 3.2 mph 3.6 mph 93% 0.00 in 0.0 W/m2 OVC
04:01 27.5 °F 25.7 °F 29.65 in East 4.9 mph 4.9 mph 93% 0.00 in 0.0 W/m2 OVC
04:05 27.5 °F 25.7 °F 29.66 in East 2.8 mph 3.5 mph 93% 0.00 in 0.0 W/m2 OVC
04:11 27.4 °F 25.6 °F 29.66 in ESE 7.4 mph 8.1 mph 93% 0.00 in 0.0 W/m2 OVC
04:14 27.4 °F 25.6 °F 29.65 in East 2.9 mph 4.6 mph 93% 0.00 in 0.0 W/m2 OVC
04:16 27.3 °F 25.5 °F 29.65 in ESE 5.4 mph 5.8 mph 93% 0.00 in 0.0 W/m2 OVC
04:21 27.2 °F 25.4 °F 29.65 in ENE 2.7 mph 3.6 mph 93% 0.00 in 0.0 W/m2 OVC
04:23 27.2 °F 25.4 °F 29.64 in ENE 8.3 mph 9.2 mph 93% 0.00 in 0.0 W/m2 OVC
04:27 27.1 °F 25.1 °F 29.64 in East 3.7 mph 4.6 mph 92% 0.00 in 0.0 W/m2 OVC
04:32 27.0 °F 25.0 °F 29.64 in East 2.9 mph 3.5 mph 92% 0.00 in 0.0 W/m2 OVC
04:35 26.8 °F 24.8 °F 29.64 in East 5.7 mph 8.1 mph 92% 0.00 in 0.0 W/m2 OVC
04:41 26.7 °F 24.7 °F 29.64 in ENE 5.3 mph 5.3 mph 92% 0.00 in 0.0 W/m2 OVC
04:43 26.6 °F 24.6 °F 29.65 in ENE 2.8 mph 4.8 mph 92% 0.00 in 0.0 W/m2 OVC
04:48 26.5 °F 24.5 °F 29.65 in East 5.3 mph 8.1 mph 92% 0.00 in 0.0 W/m2 OVC
04:53 26.3 °F 24.3 °F 29.64 in ESE 4.2 mph 5.8 mph 92% 0.00 in 0.0 W/m2 OVC
04:58 26.1 °F 24.1 °F 29.64 in ESE 6.9 mph 10.8 mph 92% 0.00 in 0.0 W/m2 OVC
05:03 25.9 °F 23.9 °F 29.65 in ENE 5.9 mph 9.2 mph 92% 0.00 in 0.0 W/m2 OVC
05:05 25.9 °F 23.9 °F 29.65 in East 3.5 mph 3.6 mph 92% 0.00 in 0.0 W/m2 OVC
05:08 25.8 °F 23.8 °F 29.65 in ENE 6.0 mph 6.9 mph 92% 0.00 in 0.0 W/m2 OVC
05:13 25.7 °F 23.7 °F 29.66 in East 4.6 mph 6.0 mph 92% 0.00 in 0.0 W/m2 OVC
05:18 25.7 °F 23.7 °F 29.66 in ENE 3.2 mph 5.8 mph 92% 0.00 in 0.0 W/m2 OVC
05:20 25.6 °F 23.6 °F 29.66 in NE 6.1 mph 8.1 mph 92% 0.00 in 0.0 W/m2 OVC
05:25 25.6 °F 23.6 °F 29.66 in ENE 6.7 mph 8.1 mph 92% 0.00 in 0.0 W/m2 OVC
05:28 25.5 °F 23.5 °F 29.67 in East 5.3 mph 8.1 mph 92% 0.00 in 0.0 W/m2 OVC
05:33 25.5 °F 23.5 °F 29.67 in East 5.3 mph 5.8 mph 92% 0.00 in 0.0 W/m2 OVC
05:35 25.5 °F 23.5 °F 29.67 in ENE 3.0 mph 5.8 mph 92% 0.00 in 0.0 W/m2 OVC
05:40 25.4 °F 23.4 °F 29.67 in East 4.9 mph 8.4 mph 92% 0.00 in 0.0 W/m2 OVC
05:42 25.3 °F 23.3 °F 29.68 in East 5.8 mph 10.4 mph 92% 0.00 in 0.0 W/m2 OVC
05:47 25.3 °F 23.3 °F 29.68 in ENE 4.7 mph 8.4 mph 92% 0.00 in 0.0 W/m2 OVC
05:50 25.3 °F 23.3 °F 29.68 in East 3.9 mph 8.1 mph 92% 0.00 in 0.0 W/m2 OVC
05:56 25.2 °F 22.9 °F 29.68 in East 8.3 mph 10.4 mph 91% 0.00 in 0.0 W/m2 OVC
05:58 25.2 °F 22.9 °F 29.69 in NE 4.2 mph 4.6 mph 91% 0.00 in 0.0 W/m2 OVC
06:03 25.2 °F 22.9 °F 29.69 in ENE 1.8 mph 3.6 mph 91% 0.00 in 0.0 W/m2 OVC
06:08 25.1 °F 22.8 °F 29.69 in ENE 6.3 mph 8.1 mph 91% 0.00 in 0.0 W/m2 OVC
06:11 25.0 °F 22.7 °F 29.69 in East 5.9 mph 9.6 mph 91% 0.00 in 0.0 W/m2 OVC
06:16 24.9 °F 22.6 °F 29.69 in East 8.5 mph 8.5 mph 91% 0.00 in 0.0 W/m2 OVC
06:19 24.9 °F 22.6 °F 29.69 in ESE 3.1 mph 5.8 mph 91% 0.00 in 0.0 W/m2 OVC
06:22 24.8 °F 22.5 °F 29.69 in ENE 4.3 mph 8.4 mph 91% 0.00 in 0.0 W/m2 OVC
06:27 24.7 °F 22.4 °F 29.69 in ESE 6.1 mph 12.7 mph 91% 0.00 in 0.0 W/m2 OVC
06:29 24.6 °F 22.3 °F 29.70 in ESE 7.3 mph 9.2 mph 91% 0.00 in 0.0 W/m2 OVC
06:34 24.5 °F 22.2 °F 29.70 in NE 5.3 mph 8.1 mph 91% 0.00 in 0.0 W/m2 OVC
06:37 24.5 °F 22.2 °F 29.69 in ENE 9.4 mph 10.4 mph 91% 0.00 in 0.0 W/m2 OVC
06:38 24.5 °F 22.2 °F 29.69 in ENE 5.4 mph 10.4 mph 91% 0.00 in 0.0 W/m2 OVC
06:43 24.5 °F 22.2 °F 29.69 in ENE 4.4 mph 5.8 mph 91% 0.00 in 0.0 W/m2 OVC
06:44 24.5 °F 22.2 °F 29.70 in SE 1.8 mph 2.4 mph 91% 0.00 in 0.0 W/m2 OVC
06:49 24.4 °F 22.2 °F 29.70 in ENE 4.8 mph 5.8 mph 91% 0.00 in 0.0 W/m2 OVC
06:50 24.4 °F 22.2 °F 29.70 in ENE 5.4 mph 5.8 mph 91% 0.00 in 0.0 W/m2 OVC
06:52 24.3 °F 22.1 °F 29.70 in ESE 6.0 mph 8.4 mph 91% 0.00 in 0.0 W/m2 OVC
06:57 24.2 °F 22.0 °F 29.71 in East 2.9 mph 7.2 mph 91% 0.00 in 0.0 W/m2 OVC
06:59 24.1 °F 21.9 °F 29.71 in ENE 6.5 mph 8.1 mph 91% 0.00 in 0.0 W/m2 OVC
07:04 23.9 °F 21.7 °F 29.71 in ENE 5.1 mph 8.1 mph 91% 0.00 in 0.0 W/m2 OVC
07:05 24.0 °F 21.8 °F 29.71 in ENE 3.4 mph 5.8 mph 91% 0.00 in 0.0 W/m2 OVC
07:06 23.9 °F 21.7 °F 29.71 in East 5.5 mph 5.8 mph 91% 0.00 in 0.0 W/m2 OVC
07:11 23.5 °F 21.0 °F 29.72 in NE 5.4 mph 9.2 mph 90% 0.00 in 0.0 W/m2 OVC
07:16 23.2 °F 20.7 °F 29.72 in NE 4.3 mph 5.8 mph 90% 0.00 in 0.0 W/m2 OVC
07:18 23.2 °F 20.7 °F 29.72 in NE 3.2 mph 3.6 mph 90% 0.00 in 0.0 W/m2 OVC
07:21 23.1 °F 20.6 °F 29.73 in East 6.0 mph 8.4 mph 90% 0.00 in 0.0 W/m2 OVC
07:26 22.8 °F 20.3 °F 29.73 in NE 5.4 mph 5.4 mph 90% 0.00 in 0.0 W/m2 OVC
07:31 22.5 °F 20.0 °F 29.73 in ENE 3.7 mph 4.8 mph 90% 0.00 in 0.0 W/m2 OVC
07:36 22.3 °F 19.8 °F 29.73 in ENE 6.1 mph 6.1 mph 90% 0.00 in 0.0 W/m2 OVC
07:37 22.3 °F 19.8 °F 29.73 in East 6.1 mph 8.1 mph 90% 0.00 in 0.0 W/m2 OVC
07:42 22.2 °F 19.7 °F 29.73 in NE 7.5 mph 10.4 mph 90% 0.00 in 7.0 W/m2 OVC
07:46 22.1 °F 19.6 °F 29.74 in East 4.6 mph 7.2 mph 90% 0.00 in 9.0 W/m2 OVC
07:48 22.0 °F 19.5 °F 29.74 in East 5.6 mph 10.4 mph 90% 0.00 in 11.0 W/m2 OVC
07:54 21.9 °F 19.4 °F 29.74 in ENE 7.4 mph 9.2 mph 90% 0.00 in 14.0 W/m2 OVC
07:59 21.8 °F 19.1 °F 29.74 in NE 7.3 mph 10.4 mph 89% 0.00 in 12.0 W/m2 OVC
08:00 21.8 °F 19.1 °F 29.74 in ENE 6.9 mph 9.2 mph 89% 0.00 in 12.0 W/m2 OVC
08:05 21.6 °F 18.9 °F 29.75 in East 8.7 mph 11.5 mph 89% 0.00 in 12.0 W/m2 OVC
08:06 21.6 °F 18.9 °F 29.74 in East 6.9 mph 9.2 mph 89% 0.00 in 12.0 W/m2 OVC
08:11 21.6 °F 19.1 °F 29.74 in ENE 5.2 mph 6.9 mph 90% 0.00 in 16.0 W/m2 OVC
08:13 21.5 °F 18.8 °F 29.74 in ENE 9.6 mph 12.7 mph 89% 0.00 in 21.0 W/m2 OVC
08:18 21.6 °F 19.1 °F 29.75 in ESE 4.4 mph 5.8 mph 90% 0.00 in 18.0 W/m2 OVC
08:23 21.4 °F 18.7 °F 29.75 in East 8.1 mph 11.5 mph 89% 0.00 in 16.0 W/m2 OVC
08:26 21.3 °F 18.6 °F 29.75 in East 7.2 mph 8.1 mph 89% 0.00 in 18.0 W/m2 OVC
08:27 21.4 °F 18.7 °F 29.75 in ENE 3.3 mph 3.5 mph 89% 0.00 in 18.0 W/m2 OVC
08:32 21.4 °F 18.7 °F 29.76 in East 6.6 mph 10.4 mph 89% 0.00 in 19.0 W/m2 OVC
08:37 21.4 °F 18.7 °F 29.76 in ENE 2.2 mph 3.5 mph 89% 0.00 in 21.0 W/m2 OVC
08:38 21.4 °F 18.7 °F 29.76 in ENE 2.2 mph 3.5 mph 89% 0.00 in 23.0 W/m2 OVC
08:39 21.5 °F 18.8 °F 29.76 in ESE 2.5 mph 4.8 mph 89% 0.00 in 25.0 W/m2 OVC
08:44 21.5 °F 18.8 °F 29.77 in ENE 2.6 mph 3.5 mph 89% 0.00 in 28.0 W/m2 OVC
08:45 21.5 °F 18.8 °F 29.77 in East 5.6 mph 9.6 mph 89% 0.00 in 26.0 W/m2 OVC
08:46 21.5 °F 18.8 °F 29.77 in East 6.3 mph 9.2 mph 89% 0.00 in 26.0 W/m2 OVC
08:51 21.3 °F 18.6 °F 29.77 in East 5.6 mph 8.1 mph 89% 0.00 in 33.0 W/m2 OVC
08:52 21.3 °F 18.6 °F 29.77 in ENE 5.8 mph 6.9 mph 89% 0.00 in 33.0 W/m2 OVC
08:57 21.3 °F 18.6 °F 29.77 in SE 5.6 mph 6.9 mph 89% 0.00 in 30.0 W/m2 OVC
09:01 21.3 °F 18.6 °F 29.77 in ENE 7.2 mph 9.2 mph 89% 0.00 in 30.0 W/m2 OVC
09:07 21.3 °F 18.6 °F 29.77 in ENE 3.0 mph 10.0 mph 89% 0.00 in 33.0 W/m2 OVC
09:12 21.3 °F 18.6 °F 29.77 in East 4.7 mph 9.2 mph 89% 0.00 in 51.0 W/m2 OVC
09:17 21.5 °F 18.8 °F 29.77 in ESE 8.3 mph 10.4 mph 89% 0.00 in 67.0 W/m2 OVC
09:18 21.5 °F 18.8 °F 29.77 in East 8.6 mph 10.4 mph 89% 0.00 in 72.0 W/m2 OVC
09:22 21.7 °F 18.7 °F 29.77 in ENE 7.0 mph 8.4 mph 88% 0.00 in 79.0 W/m2 OVC
09:23 21.7 °F 18.7 °F 29.77 in East 8.5 mph 10.8 mph 88% 0.00 in 77.0 W/m2 OVC
09:28 21.9 °F 18.9 °F 29.78 in ENE 4.8 mph 10.4 mph 88% 0.00 in 83.0 W/m2 OVC
09:29 22.0 °F 19.0 °F 29.78 in East 5.1 mph 8.1 mph 88% 0.00 in 83.0 W/m2 OVC
09:33 22.1 °F 19.1 °F 29.79 in ESE 1.7 mph 3.5 mph 88% 0.00 in 84.0 W/m2 OVC
09:36 22.3 °F 19.3 °F 29.79 in SE 1.4 mph 4.8 mph 88% 0.00 in 79.0 W/m2 OVC
09:41 22.5 °F 19.5 °F 29.79 in SE 8.1 mph 9.2 mph 88% 0.00 in 79.0 W/m2 OVC
09:43 22.4 °F 19.4 °F 29.79 in ESE 8.4 mph 9.6 mph 88% 0.00 in 77.0 W/m2 OVC
09:46 22.4 °F 19.1 °F 29.79 in ESE 8.3 mph 11.5 mph 87% 0.00 in 98.0 W/m2 OVC
09:48 22.5 °F 19.5 °F 29.79 in ENE 6.4 mph 9.2 mph 88% 0.00 in 111.0 W/m2 OVC
09:53 22.6 °F 19.6 °F 29.79 in ESE 6.7 mph 10.4 mph 88% 0.00 in 148.0 W/m2 OVC
09:56 22.9 °F 19.6 °F 29.78 in ENE 7.8 mph 8.4 mph 87% 0.00 in 165.0 W/m2 OVC
09:57 22.9 °F 19.7 °F 29.78 in East 7.0 mph 11.0 mph 87% 0.00 in 165.0 W/m2 OVC
10:02 23.1 °F 19.8 °F 29.79 in ENE 5.2 mph 10.8 mph 87% 0.00 in 95.0 W/m2 OVC
10:07 23.3 °F 20.0 °F 29.79 in ESE 4.7 mph 5.8 mph 87% 0.00 in 104.0 W/m2 OVC
10:10 23.5 °F 20.2 °F 29.79 in East 3.1 mph 3.6 mph 87% 0.00 in 105.0 W/m2 OVC
10:15 23.3 °F 20.0 °F 29.78 in ENE 10.2 mph 12.7 mph 87% 0.00 in 104.0 W/m2 OVC
10:17 23.3 °F 20.0 °F 29.78 in ESE 7.5 mph 10.4 mph 87% 0.00 in 100.0 W/m2 OVC
10:22 23.4 °F 20.1 °F 29.79 in ENE 8.0 mph 9.2 mph 87% 0.00 in 97.0 W/m2 OVC
10:23 23.5 °F 20.2 °F 29.79 in East 5.4 mph 9.2 mph 87% 0.00 in 100.0 W/m2 OVC
10:28 23.8 °F 20.5 °F 29.79 in ENE 6.0 mph 12.7 mph 87% 0.00 in 104.0 W/m2 OVC
10:32 23.8 °F 20.5 °F 29.80 in East 10.4 mph 10.4 mph 87% 0.00 in 105.0 W/m2 OVC
10:37 24.2 °F 20.9 °F 29.80 in ESE 1.4 mph 3.5 mph 87% 0.00 in 116.0 W/m2 OVC
10:41 24.3 °F 21.0 °F 29.80 in East 5.9 mph 11.5 mph 87% 0.00 in 114.0 W/m2 OVC
10:46 24.3 °F 21.0 °F 29.80 in East 7.1 mph 9.2 mph 87% 0.00 in 109.0 W/m2 OVC
10:47 24.3 °F 21.0 °F 29.80 in ESE 4.2 mph 10.4 mph 87% 0.00 in 107.0 W/m2 OVC
10:52 24.6 °F 21.3 °F 29.81 in ESE 4.4 mph 8.1 mph 87% 0.00 in 90.0 W/m2 OVC
10:53 24.6 °F 21.3 °F 29.82 in East 5.2 mph 5.8 mph 87% 0.00 in 88.0 W/m2 OVC
10:58 24.7 °F 21.1 °F 29.82 in SSE 3.3 mph 5.8 mph 86% 0.00 in 86.0 W/m2 OVC
11:03 24.8 °F 21.2 °F 29.82 in ENE 6.9 mph 9.2 mph 86% 0.00 in 105.0 W/m2 OVC
11:09 24.8 °F 21.2 °F 29.80 in ENE 6.0 mph 8.4 mph 86% 0.00 in 111.0 W/m2 OVC
11:14 25.0 °F 21.7 °F 29.80 in NE 5.0 mph 6.9 mph 87% 0.00 in 116.0 W/m2 OVC
11:16 25.1 °F 21.5 °F 29.80 in ENE 5.8 mph 5.8 mph 86% 0.00 in 118.0 W/m2 OVC
11:19 25.1 °F 21.5 °F 29.80 in East 7.0 mph 8.1 mph 86% 0.00 in 135.0 W/m2 OVC
11:24 25.4 °F 21.8 °F 29.80 in ENE 4.6 mph 4.8 mph 86% 0.00 in 127.0 W/m2 OVC
11:27 25.4 °F 21.8 °F 29.80 in NE 4.6 mph 8.1 mph 86% 0.00 in 139.0 W/m2 OVC
11:32 25.6 °F 22.0 °F 29.81 in East 6.2 mph 8.4 mph 86% 0.00 in 142.0 W/m2 OVC
11:33 25.6 °F 22.0 °F 29.81 in NE 7.3 mph 11.5 mph 86% 0.00 in 146.0 W/m2 OVC
11:39 25.6 °F 22.0 °F 29.81 in East 6.2 mph 7.2 mph 86% 0.00 in 178.0 W/m2 OVC
11:41 25.7 °F 22.1 °F 29.81 in NE 3.7 mph 4.8 mph 86% 0.00 in 109.0 W/m2 OVC
11:45 25.5 °F 21.6 °F 29.82 in NE 8.2 mph 9.2 mph 85% 0.00 in 111.0 W/m2 OVC
11:47 25.5 °F 21.9 °F 29.82 in ENE 5.5 mph 9.2 mph 86% 0.00 in 123.0 W/m2 OVC
11:52 25.7 °F 22.1 °F 29.82 in East 7.0 mph 8.1 mph 86% 0.00 in 142.0 W/m2 OVC
11:58 25.7 °F 22.1 °F 29.82 in ENE 6.2 mph 8.1 mph 86% 0.00 in 93.0 W/m2 OVC
12:03 25.6 °F 22.0 °F 29.82 in ENE 3.9 mph 4.6 mph 86% 0.00 in 81.0 W/m2 OVC
12:04 25.7 °F 22.1 °F 29.82 in ENE 2.9 mph 4.6 mph 86% 0.00 in 86.0 W/m2 OVC
12:09 25.7 °F 22.1 °F 29.82 in ESE 6.9 mph 8.4 mph 86% 0.00 in 125.0 W/m2 OVC
12:14 25.7 °F 22.1 °F 29.82 in East 4.5 mph 5.8 mph 86% 0.00 in 125.0 W/m2 OVC
12:15 25.7 °F 22.1 °F 29.82 in East 3.0 mph 3.5 mph 86% 0.00 in 123.0 W/m2 OVC
12:20 25.9 °F 22.3 °F 29.82 in East 7.2 mph 9.2 mph 86% 0.00 in 123.0 W/m2 OVC
12:22 25.9 °F 22.3 °F 29.82 in NE 5.2 mph 6.0 mph 86% 0.00 in 130.0 W/m2 OVC
12:25 26.0 °F 22.4 °F 29.82 in East 4.0 mph 5.8 mph 86% 0.00 in 141.0 W/m2 OVC
Compliments of Weather Underground - 2.5 mb